createdAt,value
2019-01-13T00:00:41.407Z,994.71
2019-01-13T00:01:41.427Z,994.69
2019-01-13T00:02:41.452Z,994.71
2019-01-13T00:03:41.468Z,994.71
2019-01-13T00:04:41.490Z,994.69
2019-01-13T00:05:41.509Z,994.71
2019-01-13T00:06:41.529Z,994.66
2019-01-13T00:07:41.554Z,994.68
2019-01-13T00:08:41.570Z,994.66
2019-01-13T00:09:41.590Z,994.70
2019-01-13T00:10:41.616Z,994.67
2019-01-13T00:11:41.633Z,994.65
2019-01-13T00:12:41.653Z,994.68
2019-01-13T00:13:41.675Z,994.64
2019-01-13T00:14:41.698Z,994.67
2019-01-13T00:15:41.717Z,994.61
2019-01-13T00:16:41.739Z,994.62
2019-01-13T00:17:41.759Z,994.62
2019-01-13T00:18:41.780Z,994.64
2019-01-13T00:19:41.798Z,994.63
2019-01-13T00:20:41.818Z,994.61
2019-01-13T00:21:41.841Z,994.62
2019-01-13T00:22:41.860Z,994.61
2019-01-13T00:23:41.880Z,994.61
2019-01-13T00:24:41.903Z,994.60
2019-01-13T00:25:41.922Z,994.57
2019-01-13T00:26:41.943Z,994.57
2019-01-13T00:27:41.962Z,994.59
2019-01-13T00:28:41.985Z,994.57
2019-01-13T00:29:42.004Z,994.59
2019-01-13T00:30:42.024Z,994.59
2019-01-13T00:31:42.043Z,994.55
2019-01-13T00:32:42.064Z,994.54
2019-01-13T00:33:42.087Z,994.56
2019-01-13T00:34:42.108Z,994.57
2019-01-13T00:35:42.127Z,994.62
2019-01-13T00:36:42.146Z,994.62
2019-01-13T00:37:42.166Z,994.60
2019-01-13T00:38:42.188Z,994.63
2019-01-13T00:39:42.204Z,994.60
2019-01-13T00:40:42.230Z,994.57
2019-01-13T00:41:42.246Z,994.56
2019-01-13T00:42:42.271Z,994.59
2019-01-13T00:43:42.285Z,994.57
2019-01-13T00:44:43.786Z,994.56
2019-01-13T00:45:42.325Z,994.53
2019-01-13T00:46:42.345Z,994.52
2019-01-13T00:47:42.367Z,994.48
2019-01-13T00:48:42.387Z,994.52
2019-01-13T00:49:42.405Z,994.48
2019-01-13T00:50:42.425Z,994.50
2019-01-13T00:51:42.442Z,994.49
2019-01-13T00:52:42.463Z,994.53
2019-01-13T00:53:43.034Z,994.55
2019-01-13T00:54:42.504Z,994.58
2019-01-13T00:55:42.526Z,994.55
2019-01-13T00:56:42.543Z,994.51
2019-01-13T00:57:42.562Z,994.54
2019-01-13T00:58:42.584Z,994.46
2019-01-13T00:59:42.602Z,994.45
2019-01-13T01:00:42.621Z,994.42
2019-01-13T01:01:42.642Z,994.44
2019-01-13T01:02:42.660Z,994.40
2019-01-13T01:03:42.679Z,994.41
2019-01-13T01:04:42.700Z,994.40
2019-01-13T01:05:42.716Z,994.41
2019-01-13T01:06:42.736Z,994.40
2019-01-13T01:07:42.756Z,994.44
2019-01-13T01:08:42.774Z,994.42
2019-01-13T01:09:42.794Z,994.41
2019-01-13T01:10:42.817Z,994.40
2019-01-13T01:11:42.832Z,994.43
2019-01-13T01:12:42.853Z,994.40
2019-01-13T01:13:42.872Z,994.36
2019-01-13T01:14:42.890Z,994.35
2019-01-13T01:15:42.910Z,994.35
2019-01-13T01:16:42.928Z,994.34
2019-01-13T01:17:42.951Z,994.29
2019-01-13T01:18:42.993Z,994.32
2019-01-13T01:19:42.985Z,994.26
2019-01-13T01:20:43.008Z,994.31
2019-01-13T01:21:43.025Z,994.30
2019-01-13T01:22:43.044Z,994.33
2019-01-13T01:23:43.065Z,994.36
2019-01-13T01:24:43.083Z,994.39
2019-01-13T01:25:43.100Z,994.38
2019-01-13T01:26:43.120Z,994.39
2019-01-13T01:27:43.140Z,994.35
2019-01-13T01:28:44.405Z,994.31
2019-01-13T01:29:43.175Z,994.34
2019-01-13T01:30:43.197Z,994.36
2019-01-13T01:31:43.214Z,994.32
2019-01-13T01:32:43.232Z,994.32
2019-01-13T01:33:43.251Z,994.27
2019-01-13T01:34:43.274Z,994.26
2019-01-13T01:35:43.291Z,994.24
2019-01-13T01:36:43.307Z,994.27
2019-01-13T01:37:43.328Z,994.25
2019-01-13T01:38:43.347Z,994.26
2019-01-13T01:39:43.365Z,994.22
2019-01-13T01:40:43.384Z,994.27
2019-01-13T01:41:43.404Z,994.24
2019-01-13T01:42:43.422Z,994.27
2019-01-13T01:43:43.441Z,994.24
2019-01-13T01:44:43.461Z,994.22
2019-01-13T01:45:43.478Z,994.19
2019-01-13T01:46:43.497Z,994.17
2019-01-13T01:47:43.515Z,994.18
2019-01-13T01:48:43.538Z,994.11
2019-01-13T01:49:43.551Z,994.08
2019-01-13T01:50:43.571Z,994.13
2019-01-13T01:51:43.590Z,994.11
2019-01-13T01:52:43.609Z,994.11
2019-01-13T01:53:43.626Z,994.10
2019-01-13T01:54:43.647Z,994.09
2019-01-13T01:55:43.664Z,994.05
2019-01-13T01:56:43.682Z,994.05
2019-01-13T01:57:43.703Z,994.03
2019-01-13T01:58:43.724Z,994.03
2019-01-13T01:59:43.738Z,994.04
2019-01-13T02:00:43.756Z,994.01
2019-01-13T02:01:43.778Z,993.99
2019-01-13T02:02:43.796Z,993.97
2019-01-13T02:03:43.867Z,993.95
2019-01-13T02:04:43.883Z,993.96
2019-01-13T02:05:43.907Z,993.92
2019-01-13T02:06:43.872Z,993.95
2019-01-13T02:07:43.918Z,993.96
2019-01-13T02:08:43.904Z,993.91
2019-01-13T02:09:43.923Z,993.94
2019-01-13T02:10:43.942Z,993.88
2019-01-13T02:11:43.960Z,993.93
2019-01-13T02:12:43.976Z,993.95
2019-01-13T02:13:44.001Z,993.95
2019-01-13T02:14:44.025Z,993.94
2019-01-13T02:15:44.035Z,993.94
2019-01-13T02:16:44.056Z,993.92
2019-01-13T02:17:44.071Z,993.91
2019-01-13T02:18:44.090Z,993.88
2019-01-13T02:19:44.106Z,993.86
2019-01-13T02:20:44.127Z,993.88
2019-01-13T02:21:44.147Z,993.84
2019-01-13T02:22:44.164Z,993.82
2019-01-13T02:23:44.182Z,993.80
2019-01-13T02:24:44.199Z,993.80
2019-01-13T02:25:44.218Z,993.77
2019-01-13T02:26:44.237Z,993.75
2019-01-13T02:27:44.256Z,993.75
2019-01-13T02:28:44.275Z,993.74
2019-01-13T02:29:44.290Z,993.74
2019-01-13T02:30:49.066Z,993.74
2019-01-13T02:31:44.336Z,993.72
2019-01-13T02:32:44.345Z,993.73
2019-01-13T02:33:44.364Z,993.73
2019-01-13T02:34:44.384Z,993.66
2019-01-13T02:35:44.401Z,993.66
2019-01-13T02:36:44.420Z,993.70
2019-01-13T02:37:44.440Z,993.60
2019-01-13T02:38:44.458Z,993.59
2019-01-13T02:39:44.473Z,993.58
2019-01-13T02:40:44.492Z,993.56
2019-01-13T02:41:44.513Z,993.57
2019-01-13T02:42:44.529Z,993.56
2019-01-13T02:43:44.550Z,993.56
2019-01-13T02:44:44.565Z,993.53
2019-01-13T02:45:44.583Z,993.50
2019-01-13T02:46:44.603Z,993.50
2019-01-13T02:47:44.620Z,993.48
2019-01-13T02:48:44.647Z,993.47
2019-01-13T02:49:44.659Z,993.41
2019-01-13T02:50:44.745Z,993.42
2019-01-13T02:51:44.692Z,993.46
2019-01-13T02:52:44.714Z,993.46
2019-01-13T02:53:44.735Z,993.45
2019-01-13T02:54:44.749Z,993.45
2019-01-13T02:55:44.767Z,993.49
2019-01-13T02:56:44.784Z,993.44
2019-01-13T02:57:44.802Z,993.42
2019-01-13T02:58:44.822Z,993.41
2019-01-13T02:59:44.837Z,993.38
2019-01-13T03:00:44.855Z,993.35
2019-01-13T03:01:44.881Z,993.33
2019-01-13T03:02:44.892Z,993.33
2019-01-13T03:03:44.910Z,993.30
2019-01-13T03:04:44.927Z,993.31
2019-01-13T03:05:44.948Z,993.29
2019-01-13T03:06:44.966Z,993.33
2019-01-13T03:07:44.983Z,993.34
2019-01-13T03:08:45.001Z,993.30
2019-01-13T03:09:45.023Z,993.40
2019-01-13T03:10:45.039Z,993.41
2019-01-13T03:11:45.057Z,993.37
2019-01-13T03:12:45.076Z,993.31
2019-01-13T03:13:45.102Z,993.30
2019-01-13T03:14:45.111Z,993.30
2019-01-13T03:15:45.127Z,993.29
2019-01-13T03:16:45.145Z,993.30
2019-01-13T03:17:45.166Z,993.26
2019-01-13T03:18:45.184Z,993.21
2019-01-13T03:19:45.200Z,993.25
2019-01-13T03:20:45.217Z,993.22
2019-01-13T03:21:45.236Z,993.24
2019-01-13T03:22:45.255Z,993.25
2019-01-13T03:23:45.273Z,993.21
2019-01-13T03:24:45.291Z,993.21
2019-01-13T03:25:45.313Z,993.24
2019-01-13T03:26:45.326Z,993.24
2019-01-13T03:27:45.355Z,993.25
2019-01-13T03:28:45.362Z,993.23
2019-01-13T03:29:45.380Z,993.21
2019-01-13T03:30:45.402Z,993.24
2019-01-13T03:31:45.416Z,993.25
2019-01-13T03:32:45.483Z,993.25
2019-01-13T03:33:45.457Z,993.18
2019-01-13T03:34:45.469Z,993.20
2019-01-13T03:35:45.486Z,993.22
2019-01-13T03:36:45.508Z,993.20
2019-01-13T03:37:45.529Z,993.20
2019-01-13T03:38:45.542Z,993.18
2019-01-13T03:39:45.558Z,993.19
2019-01-13T03:40:45.578Z,993.18
2019-01-13T03:41:45.594Z,993.15
2019-01-13T03:42:45.612Z,993.13
2019-01-13T03:43:45.630Z,993.13
2019-01-13T03:44:45.650Z,993.14
2019-01-13T03:45:45.666Z,993.17
2019-01-13T03:46:45.685Z,993.18
2019-01-13T03:47:45.702Z,993.15
2019-01-13T03:48:45.718Z,993.15
2019-01-13T03:49:45.739Z,993.18
2019-01-13T03:50:45.754Z,993.20
2019-01-13T03:51:45.772Z,993.16
2019-01-13T03:52:52.730Z,993.11
2019-01-13T03:53:45.808Z,993.13
2019-01-13T03:54:45.829Z,993.14
2019-01-13T03:55:45.845Z,993.10
2019-01-13T03:56:45.867Z,993.08
2019-01-13T03:57:45.882Z,993.06
2019-01-13T03:58:45.904Z,993.06
2019-01-13T03:59:45.923Z,993.09
2019-01-13T04:00:45.936Z,993.07
2019-01-13T04:01:45.967Z,993.07
2019-01-13T04:02:45.970Z,993.08
2019-01-13T04:03:45.992Z,993.06
2019-01-13T04:04:46.067Z,993.03
2019-01-13T04:05:46.028Z,993.03
2019-01-13T04:06:46.048Z,993.02
2019-01-13T04:07:46.082Z,993.02
2019-01-13T04:08:46.081Z,992.95
2019-01-13T04:09:46.097Z,992.94
2019-01-13T04:10:46.114Z,992.91
2019-01-13T04:11:46.131Z,992.88
2019-01-13T04:12:46.152Z,992.89
2019-01-13T04:13:46.169Z,992.86
2019-01-13T04:14:46.188Z,992.88
2019-01-13T04:15:46.211Z,992.86
2019-01-13T04:16:46.222Z,992.87
2019-01-13T04:17:46.240Z,992.88
2019-01-13T04:18:46.258Z,992.89
2019-01-13T04:19:46.276Z,992.88
2019-01-13T04:20:46.294Z,992.84
2019-01-13T04:21:46.314Z,992.77
2019-01-13T04:22:46.333Z,992.78
2019-01-13T04:23:46.350Z,992.76
2019-01-13T04:24:46.367Z,992.70
2019-01-13T04:25:46.388Z,992.75
2019-01-13T04:26:46.405Z,992.71
2019-01-13T04:27:46.421Z,992.72
2019-01-13T04:28:46.438Z,992.69
2019-01-13T04:29:46.458Z,992.68
2019-01-13T04:30:46.477Z,992.67
2019-01-13T04:31:46.497Z,992.63
2019-01-13T04:32:46.515Z,992.65
2019-01-13T04:33:46.534Z,992.64
2019-01-13T04:34:46.550Z,992.63
2019-01-13T04:35:46.570Z,992.60
2019-01-13T04:36:46.586Z,992.58
2019-01-13T04:37:46.625Z,992.54
2019-01-13T04:38:46.625Z,992.50
2019-01-13T04:39:46.645Z,992.48
2019-01-13T04:40:46.668Z,992.53
2019-01-13T04:41:46.680Z,992.50
2019-01-13T04:42:46.697Z,992.53
2019-01-13T04:43:46.718Z,992.51
2019-01-13T04:44:46.736Z,992.54
2019-01-13T04:45:46.752Z,992.52
2019-01-13T04:46:46.772Z,992.47
2019-01-13T04:47:46.792Z,992.49
2019-01-13T04:48:46.809Z,992.46
2019-01-13T04:49:46.831Z,992.43
2019-01-13T04:50:46.844Z,992.41
2019-01-13T04:51:46.867Z,992.39
2019-01-13T04:52:46.885Z,992.37
2019-01-13T04:53:46.904Z,992.29
2019-01-13T04:54:46.921Z,992.33
2019-01-13T04:55:46.938Z,992.39
2019-01-13T04:56:46.961Z,992.35
2019-01-13T04:57:46.980Z,992.37
2019-01-13T04:58:46.997Z,992.38
2019-01-13T04:59:47.014Z,992.45
2019-01-13T05:00:47.034Z,992.39
2019-01-13T05:01:47.062Z,992.41
2019-01-13T05:02:47.068Z,992.40
2019-01-13T05:03:47.087Z,992.35
2019-01-13T05:04:47.109Z,992.33
2019-01-13T05:05:47.131Z,992.29
2019-01-13T05:06:47.143Z,992.26
2019-01-13T05:07:47.163Z,992.20
2019-01-13T05:08:47.181Z,992.21
2019-01-13T05:09:47.200Z,992.22
2019-01-13T05:10:47.219Z,992.22
2019-01-13T05:11:47.237Z,992.21
2019-01-13T05:12:47.260Z,992.18
2019-01-13T05:13:47.277Z,992.17
2019-01-13T05:14:47.298Z,992.16
2019-01-13T05:15:47.315Z,992.14
2019-01-13T05:16:47.336Z,992.14
2019-01-13T05:17:47.362Z,992.11
2019-01-13T05:18:47.372Z,992.18
2019-01-13T05:19:47.389Z,992.15
2019-01-13T05:20:47.412Z,992.16
2019-01-13T05:21:47.430Z,992.13
2019-01-13T05:22:47.450Z,992.12
2019-01-13T05:23:47.467Z,992.09
2019-01-13T05:24:47.490Z,992.08
2019-01-13T05:25:47.509Z,992.09
2019-01-13T05:26:47.530Z,992.08
2019-01-13T05:27:47.545Z,992.05
2019-01-13T05:28:47.565Z,992.09
2019-01-13T05:29:47.584Z,992.02
2019-01-13T05:30:47.606Z,992.01
2019-01-13T05:31:47.631Z,991.97
2019-01-13T05:32:47.644Z,991.98
2019-01-13T05:33:47.663Z,991.93
2019-01-13T05:34:47.685Z,991.91
2019-01-13T05:35:47.701Z,991.93
2019-01-13T05:36:47.721Z,991.90
2019-01-13T05:37:47.742Z,991.87
2019-01-13T05:38:47.762Z,991.83
2019-01-13T05:39:47.778Z,991.88
2019-01-13T05:40:47.803Z,991.84
2019-01-13T05:41:47.818Z,991.82
2019-01-13T05:42:47.838Z,991.80
2019-01-13T05:43:47.857Z,991.79
2019-01-13T05:44:47.878Z,991.82
2019-01-13T05:45:47.899Z,991.78
2019-01-13T05:46:47.917Z,991.78
2019-01-13T05:47:47.936Z,991.76
2019-01-13T05:48:47.956Z,991.75
2019-01-13T05:49:47.976Z,991.73
2019-01-13T05:50:47.994Z,991.74
2019-01-13T05:51:48.016Z,991.76
2019-01-13T05:52:48.034Z,991.78
2019-01-13T05:53:48.058Z,991.72
2019-01-13T05:54:48.074Z,991.75
2019-01-13T05:55:48.094Z,991.72
2019-01-13T05:56:48.112Z,991.75
2019-01-13T05:57:48.138Z,991.70
2019-01-13T05:58:48.153Z,991.67
2019-01-13T05:59:48.171Z,991.68
2019-01-13T06:00:48.197Z,991.64
2019-01-13T06:01:49.320Z,991.66
2019-01-13T06:02:48.235Z,991.66
2019-01-13T06:03:48.251Z,991.68
2019-01-13T06:04:48.271Z,991.65
2019-01-13T06:05:48.294Z,991.68
2019-01-13T06:06:48.311Z,991.66
2019-01-13T06:07:48.332Z,991.65
2019-01-13T06:08:48.351Z,991.66
2019-01-13T06:09:48.372Z,991.62
2019-01-13T06:10:48.390Z,991.61
2019-01-13T06:11:48.412Z,991.62
2019-01-13T06:12:48.429Z,991.61
2019-01-13T06:13:48.448Z,991.60
2019-01-13T06:14:48.473Z,991.62
2019-01-13T06:15:48.492Z,991.62
2019-01-13T06:16:48.509Z,991.63
2019-01-13T06:17:48.532Z,991.62
2019-01-13T06:18:48.548Z,991.61
2019-01-13T06:19:48.572Z,991.62
2019-01-13T06:20:48.588Z,991.66
2019-01-13T06:21:48.610Z,991.63
2019-01-13T06:22:48.628Z,991.58
2019-01-13T06:23:48.650Z,991.57
2019-01-13T06:24:48.669Z,991.55
2019-01-13T06:25:48.688Z,991.56
2019-01-13T06:26:48.707Z,991.57
2019-01-13T06:27:48.726Z,991.57
2019-01-13T06:28:48.748Z,991.53
2019-01-13T06:29:48.770Z,991.48
2019-01-13T06:30:48.788Z,991.45
2019-01-13T06:31:48.809Z,991.45
2019-01-13T06:32:48.827Z,991.47
2019-01-13T06:33:48.852Z,991.47
2019-01-13T06:34:48.868Z,991.43
2019-01-13T06:35:48.889Z,991.41
2019-01-13T06:36:48.913Z,991.43
2019-01-13T06:37:48.937Z,991.41
2019-01-13T06:38:48.948Z,991.43
2019-01-13T06:39:48.967Z,991.38
2019-01-13T06:40:48.987Z,991.37
2019-01-13T06:41:49.011Z,991.34
2019-01-13T06:42:49.028Z,991.38
2019-01-13T06:43:49.047Z,991.36
2019-01-13T06:44:49.120Z,991.31
2019-01-13T06:45:49.088Z,991.33
2019-01-13T06:46:49.113Z,991.31
2019-01-13T06:47:49.132Z,991.26
2019-01-13T06:48:49.151Z,991.31
2019-01-13T06:49:49.169Z,991.27
2019-01-13T06:50:49.192Z,991.27
2019-01-13T06:51:49.210Z,991.27
2019-01-13T06:52:49.229Z,991.23
2019-01-13T06:53:49.251Z,991.20
2019-01-13T06:54:49.269Z,991.18
2019-01-13T06:55:49.290Z,991.14
2019-01-13T06:56:49.312Z,991.11
2019-01-13T06:57:49.330Z,991.12
2019-01-13T06:58:49.352Z,991.10
2019-01-13T06:59:49.371Z,991.08
2019-01-13T07:00:49.391Z,991.06
2019-01-13T07:01:49.418Z,991.06
2019-01-13T07:02:49.445Z,991.05
2019-01-13T07:03:49.452Z,991.00
2019-01-13T07:04:49.474Z,990.99
2019-01-13T07:05:49.496Z,990.98
2019-01-13T07:06:49.515Z,990.93
2019-01-13T07:07:49.537Z,990.94
2019-01-13T07:08:49.555Z,991.03
2019-01-13T07:09:49.574Z,990.93
2019-01-13T07:10:49.598Z,990.89
2019-01-13T07:11:49.616Z,990.94
2019-01-13T07:12:49.641Z,990.95
2019-01-13T07:13:49.658Z,990.91
2019-01-13T07:14:49.679Z,990.88
2019-01-13T07:15:49.699Z,990.90
2019-01-13T07:16:49.723Z,990.90
2019-01-13T07:17:49.741Z,990.88
2019-01-13T07:18:49.763Z,990.88
2019-01-13T07:19:49.781Z,990.85
2019-01-13T07:20:49.800Z,990.85
2019-01-13T07:21:49.823Z,990.85
2019-01-13T07:22:49.845Z,990.82
2019-01-13T07:23:49.865Z,990.81
2019-01-13T07:24:49.884Z,990.81
2019-01-13T07:25:49.904Z,990.82
2019-01-13T07:26:49.928Z,990.80
2019-01-13T07:27:49.945Z,990.81
2019-01-13T07:28:49.965Z,990.78
2019-01-13T07:29:49.986Z,990.80
2019-01-13T07:30:50.007Z,990.75
2019-01-13T07:31:50.031Z,990.74
2019-01-13T07:32:50.052Z,990.73
2019-01-13T07:33:50.074Z,990.71
2019-01-13T07:34:50.091Z,990.72
2019-01-13T07:35:50.110Z,990.67
2019-01-13T07:36:50.132Z,990.73
2019-01-13T07:37:50.152Z,990.70
2019-01-13T07:38:50.175Z,990.70
2019-01-13T07:39:50.193Z,990.69
2019-01-13T07:40:50.215Z,990.66
2019-01-13T07:41:50.239Z,990.65
2019-01-13T07:42:50.257Z,990.62
2019-01-13T07:43:50.281Z,990.62
2019-01-13T07:44:50.299Z,990.58
2019-01-13T07:45:50.326Z,990.58
2019-01-13T07:46:50.343Z,990.60
2019-01-13T07:47:50.365Z,990.58
2019-01-13T07:48:50.387Z,990.56
2019-01-13T07:49:50.404Z,990.58
2019-01-13T07:50:50.426Z,990.54
2019-01-13T07:51:50.447Z,990.53
2019-01-13T07:52:50.469Z,990.51
2019-01-13T07:53:50.491Z,990.43
2019-01-13T07:54:51.574Z,990.46
2019-01-13T07:55:50.534Z,990.41
2019-01-13T07:56:50.554Z,990.37
2019-01-13T07:57:50.575Z,990.38
2019-01-13T07:58:50.595Z,990.36
2019-01-13T07:59:50.616Z,990.40
2019-01-13T08:00:50.638Z,990.38
2019-01-13T08:01:50.660Z,990.37
2019-01-13T08:02:50.681Z,990.34
2019-01-13T08:03:50.704Z,990.28
2019-01-13T08:04:50.724Z,990.29
2019-01-13T08:05:50.749Z,990.27
2019-01-13T08:06:50.769Z,990.23
2019-01-13T08:07:50.788Z,990.22
2019-01-13T08:08:50.813Z,990.22
2019-01-13T08:09:50.830Z,990.15
2019-01-13T08:10:50.854Z,990.17
2019-01-13T08:11:50.875Z,990.15
2019-01-13T08:12:50.896Z,990.15
2019-01-13T08:13:50.919Z,990.07
2019-01-13T08:14:50.939Z,990.08
2019-01-13T08:15:50.960Z,990.01
2019-01-13T08:16:50.984Z,989.98
2019-01-13T08:17:51.005Z,989.94
2019-01-13T08:18:51.024Z,989.91
2019-01-13T08:19:51.044Z,989.88
2019-01-13T08:20:51.067Z,989.84
2019-01-13T08:21:51.088Z,989.81
2019-01-13T08:22:51.113Z,989.77
2019-01-13T08:23:51.149Z,989.78
2019-01-13T08:24:51.153Z,989.79
2019-01-13T08:25:51.176Z,989.75
2019-01-13T08:26:51.195Z,989.76
2019-01-13T08:27:51.217Z,989.72
2019-01-13T08:28:51.239Z,989.73
2019-01-13T08:29:51.261Z,989.65
2019-01-13T08:30:51.281Z,989.69
2019-01-13T08:31:51.302Z,989.63
2019-01-13T08:32:51.323Z,989.65
2019-01-13T08:33:51.345Z,989.64
2019-01-13T08:34:51.368Z,989.65
2019-01-13T08:35:51.388Z,989.58
2019-01-13T08:36:51.411Z,989.53
2019-01-13T08:37:51.432Z,989.56
2019-01-13T08:38:51.456Z,989.49
2019-01-13T08:39:51.476Z,989.50
2019-01-13T08:40:51.499Z,989.48
2019-01-13T08:41:51.521Z,989.46
2019-01-13T08:42:51.544Z,989.41
2019-01-13T08:43:51.559Z,989.42
2019-01-13T08:44:51.582Z,989.35
2019-01-13T08:45:51.603Z,989.30
2019-01-13T08:46:51.626Z,989.27
2019-01-13T08:47:51.647Z,989.26
2019-01-13T08:48:51.667Z,989.25
2019-01-13T08:49:51.694Z,989.23
2019-01-13T08:50:51.713Z,989.16
2019-01-13T08:51:51.733Z,989.13
2019-01-13T08:52:51.763Z,989.10
2019-01-13T08:53:51.780Z,989.08
2019-01-13T08:54:51.802Z,989.08
2019-01-13T08:55:51.818Z,989.06
2019-01-13T08:56:51.841Z,989.05
2019-01-13T08:57:51.862Z,989.06
2019-01-13T08:58:51.884Z,989.03
2019-01-13T08:59:51.906Z,988.97
2019-01-13T09:00:51.929Z,988.93
2019-01-13T09:01:51.951Z,988.90
2019-01-13T09:02:51.973Z,988.89
2019-01-13T09:03:51.999Z,988.88
2019-01-13T09:04:52.021Z,988.90
2019-01-13T09:05:52.041Z,988.84
2019-01-13T09:06:52.063Z,988.85
2019-01-13T09:07:52.083Z,988.82
2019-01-13T09:08:52.105Z,988.85
2019-01-13T09:09:52.126Z,988.87
2019-01-13T09:10:52.148Z,988.84
2019-01-13T09:11:52.169Z,988.83
2019-01-13T09:12:56.612Z,988.81
2019-01-13T09:13:52.211Z,988.80
2019-01-13T09:14:52.238Z,988.77
2019-01-13T09:15:52.258Z,988.76
2019-01-13T09:16:52.280Z,988.77
2019-01-13T09:17:52.304Z,988.69
2019-01-13T09:18:52.325Z,988.68
2019-01-13T09:19:52.344Z,988.64
2019-01-13T09:20:52.371Z,988.64
2019-01-13T09:21:52.392Z,988.59
2019-01-13T09:22:52.413Z,988.57
2019-01-13T09:23:52.434Z,988.56
2019-01-13T09:24:52.457Z,988.52
2019-01-13T09:25:52.479Z,988.52
2019-01-13T09:26:52.507Z,988.54
2019-01-13T09:27:52.525Z,988.49
2019-01-13T09:28:52.549Z,988.48
2019-01-13T09:29:52.569Z,988.46
2019-01-13T09:30:52.593Z,988.45
2019-01-13T09:31:52.618Z,988.45
2019-01-13T09:32:52.638Z,988.46
2019-01-13T09:33:52.660Z,988.41
2019-01-13T09:34:52.685Z,988.41
2019-01-13T09:35:52.709Z,988.41
2019-01-13T09:36:52.729Z,988.37
2019-01-13T09:37:52.752Z,988.39
2019-01-13T09:38:52.775Z,988.37
2019-01-13T09:39:52.797Z,988.37
2019-01-13T09:40:52.820Z,988.36
2019-01-13T09:41:52.847Z,988.33
2019-01-13T09:42:52.867Z,988.35
2019-01-13T09:43:52.889Z,988.32
2019-01-13T09:44:52.915Z,988.30
2019-01-13T09:45:52.935Z,988.27
2019-01-13T09:46:52.964Z,988.22
2019-01-13T09:47:52.984Z,988.22
2019-01-13T09:48:53.006Z,988.23
2019-01-13T09:49:53.028Z,988.21
2019-01-13T09:50:53.055Z,988.18
2019-01-13T09:51:53.076Z,988.13
2019-01-13T09:52:53.142Z,988.11
2019-01-13T09:53:53.122Z,988.12
2019-01-13T09:54:53.147Z,988.08
2019-01-13T09:55:53.166Z,988.04
2019-01-13T09:56:53.195Z,988.03
2019-01-13T09:57:53.213Z,988.00
2019-01-13T09:58:53.239Z,987.94
2019-01-13T09:59:53.261Z,987.90
2019-01-13T10:00:53.285Z,987.86
2019-01-13T10:01:53.308Z,987.81
2019-01-13T10:02:53.334Z,987.82
2019-01-13T10:03:53.353Z,987.82
2019-01-13T10:04:53.379Z,987.79
2019-01-13T10:05:53.399Z,987.79
2019-01-13T10:06:53.425Z,987.77
2019-01-13T10:07:53.447Z,987.73
2019-01-13T10:08:53.473Z,987.69
2019-01-13T10:09:53.496Z,987.73
2019-01-13T10:10:53.520Z,987.66
2019-01-13T10:11:53.541Z,987.66
2019-01-13T10:12:53.564Z,987.63
2019-01-13T10:13:53.592Z,987.62
2019-01-13T10:14:53.612Z,987.62
2019-01-13T10:15:53.636Z,987.58
2019-01-13T10:16:53.658Z,987.54
2019-01-13T10:17:53.683Z,987.49
2019-01-13T10:18:53.708Z,987.48
2019-01-13T10:19:53.730Z,987.44
2019-01-13T10:20:53.752Z,987.43
2019-01-13T10:21:53.776Z,987.42
2019-01-13T10:22:53.800Z,987.39
2019-01-13T10:23:53.826Z,987.34
2019-01-13T10:24:53.851Z,987.30
2019-01-13T10:25:53.870Z,987.28
2019-01-13T10:26:53.893Z,987.18
2019-01-13T10:27:53.919Z,987.19
2019-01-13T10:28:53.944Z,987.15
2019-01-13T10:29:53.966Z,987.18
2019-01-13T10:30:53.989Z,987.13
2019-01-13T10:31:54.014Z,987.10
2019-01-13T10:32:55.201Z,987.06
2019-01-13T10:33:54.063Z,987.05
2019-01-13T10:34:54.086Z,986.99
2019-01-13T10:35:54.105Z,987.00
2019-01-13T10:36:54.130Z,987.01
2019-01-13T10:37:54.154Z,987.00
2019-01-13T10:38:54.177Z,987.01
2019-01-13T10:39:54.200Z,986.96
2019-01-13T10:40:54.224Z,986.91
2019-01-13T10:41:54.251Z,986.91
2019-01-13T10:42:54.272Z,986.94
2019-01-13T10:43:54.295Z,986.90
2019-01-13T10:44:54.320Z,986.88
2019-01-13T10:45:54.341Z,986.90
2019-01-13T10:46:54.365Z,986.92
2019-01-13T10:47:54.390Z,986.90
2019-01-13T10:48:54.412Z,986.83
2019-01-13T10:49:54.439Z,986.79
2019-01-13T10:50:54.462Z,986.72
2019-01-13T10:51:54.485Z,986.74
2019-01-13T10:52:54.513Z,986.72
2019-01-13T10:53:54.533Z,986.68
2019-01-13T10:54:54.556Z,986.61
2019-01-13T10:55:55.520Z,986.64
2019-01-13T10:56:54.602Z,986.60
2019-01-13T10:57:54.627Z,986.58
2019-01-13T10:58:54.650Z,986.54
2019-01-13T10:59:54.687Z,986.50
2019-01-13T11:00:54.699Z,986.47
2019-01-13T11:01:54.726Z,986.48
2019-01-13T11:03:01.727Z,986.44
2019-01-13T11:03:54.769Z,986.47
2019-01-13T11:04:54.793Z,986.44
2019-01-13T11:05:54.821Z,986.39
2019-01-13T11:06:54.845Z,986.36
2019-01-13T11:07:54.868Z,986.31
2019-01-13T11:08:54.889Z,986.33
2019-01-13T11:09:54.915Z,986.28
2019-01-13T11:10:54.938Z,986.34
2019-01-13T11:11:54.962Z,986.32
2019-01-13T11:12:54.986Z,986.32
2019-01-13T11:13:55.010Z,986.30
2019-01-13T11:14:55.034Z,986.24
2019-01-13T11:15:55.057Z,986.28
2019-01-13T11:16:55.081Z,986.29
2019-01-13T11:17:55.105Z,986.23
2019-01-13T11:18:55.129Z,986.22
2019-01-13T11:19:55.154Z,986.19
2019-01-13T11:20:55.179Z,986.16
2019-01-13T11:21:55.204Z,986.16
2019-01-13T11:22:55.226Z,986.12
2019-01-13T11:23:55.249Z,986.10
2019-01-13T11:24:55.272Z,986.09
2019-01-13T11:25:55.295Z,986.07
2019-01-13T11:26:55.320Z,986.07
2019-01-13T11:27:55.347Z,986.04
2019-01-13T11:28:55.369Z,985.98
2019-01-13T11:29:55.394Z,985.97
2019-01-13T11:30:55.417Z,985.93
2019-01-13T11:31:55.445Z,985.88
2019-01-13T11:32:55.463Z,985.83
2019-01-13T11:33:55.486Z,985.80
2019-01-13T11:34:55.518Z,985.77
2019-01-13T11:35:55.534Z,985.74
2019-01-13T11:36:55.566Z,985.67
2019-01-13T11:37:55.596Z,985.66
2019-01-13T11:38:55.609Z,985.66
2019-01-13T11:39:55.632Z,985.57
2019-01-13T11:40:55.655Z,985.54
2019-01-13T11:41:55.682Z,985.51
2019-01-13T11:42:55.704Z,985.47
2019-01-13T11:43:55.727Z,985.42
2019-01-13T11:44:55.751Z,985.47
2019-01-13T11:45:55.775Z,985.41
2019-01-13T11:46:55.807Z,985.39
2019-01-13T11:47:55.821Z,985.33
2019-01-13T11:48:55.849Z,985.35
2019-01-13T11:49:55.872Z,985.32
2019-01-13T11:50:55.898Z,985.26
2019-01-13T11:51:55.924Z,985.28
2019-01-13T11:52:55.944Z,985.26
2019-01-13T11:53:55.973Z,985.23
2019-01-13T11:54:55.992Z,985.19
2019-01-13T11:55:56.014Z,985.17
2019-01-13T11:56:56.038Z,985.15
2019-01-13T11:57:56.063Z,985.16
2019-01-13T11:58:56.090Z,985.12
2019-01-13T11:59:56.113Z,985.07
2019-01-13T12:00:56.133Z,985.07
2019-01-13T12:01:56.160Z,985.02
2019-01-13T12:02:56.188Z,985.00
2019-01-13T12:03:56.215Z,984.93
2019-01-13T12:04:56.232Z,984.91
2019-01-13T12:05:56.255Z,984.91
2019-01-13T12:06:56.278Z,984.86
2019-01-13T12:07:56.302Z,984.88
2019-01-13T12:08:56.327Z,984.85
2019-01-13T12:09:56.348Z,984.85
2019-01-13T12:10:56.370Z,984.84
2019-01-13T12:11:56.393Z,984.82
2019-01-13T12:12:56.426Z,984.82
2019-01-13T12:13:56.443Z,984.80
2019-01-13T12:14:56.468Z,984.80
2019-01-13T12:15:56.489Z,984.74
2019-01-13T12:16:56.513Z,984.75
2019-01-13T12:17:56.542Z,984.68
2019-01-13T12:18:56.567Z,984.69
2019-01-13T12:19:56.585Z,984.69
2019-01-13T12:20:56.609Z,984.66
2019-01-13T12:21:56.635Z,984.63
2019-01-13T12:22:56.657Z,984.60
2019-01-13T12:23:56.680Z,984.57
2019-01-13T12:24:56.701Z,984.54
2019-01-13T12:25:56.730Z,984.51
2019-01-13T12:26:56.751Z,984.47
2019-01-13T12:27:56.777Z,984.43
2019-01-13T12:28:56.798Z,984.38